Time;durP1;ratioP1;P1;durP2;ratioP2;P2;SDS_P1;SDS_P2;PMS_P1;PMS_P2;Temp;Humidity;BMP_temperature;BMP_pressure;BME280_temperature;BME280_humidity;BME280_pressure;Samples;Min_cycle;Max_cycle;Signal;HPM_P1;HPM_P2
2023/08/29 00:01:44;;;;;;;0.10;0.10;;;13.00;99.90;;;;;;5048082;28;20174;-82
2023/08/29 00:04:10;;;;;;;0.10;0.10;;;13.00;99.90;;;;;;5048710;28;20193;-82
2023/08/29 00:06:35;;;;;;;0.10;0.10;;;13.00;99.90;;;;;;5051024;28;20418;-82
2023/08/29 00:09:02;;;;;;;0.10;0.10;;;13.00;99.90;;;;;;5060780;28;20834;-81
2023/08/29 00:11:27;;;;;;;0.10;0.10;;;12.90;99.90;;;;;;5051688;28;20528;-81
2023/08/29 00:13:53;;;;;;;0.10;0.10;;;12.80;99.90;;;;;;5045799;28;20497;-81
2023/08/29 00:16:18;;;;;;;0.10;0.10;;;12.80;99.90;;;;;;5046885;28;20226;-81
2023/08/29 00:18:44;;;;;;;0.20;0.20;;;12.70;99.90;;;;;;5045619;28;20709;-81
2023/08/29 00:21:10;;;;;;;0.10;0.10;;;12.70;99.90;;;;;;5054352;28;20277;-81
2023/08/29 00:23:35;;;;;;;0.10;0.10;;;12.70;99.90;;;;;;5048540;28;20196;-81
2023/08/29 00:26:01;;;;;;;0.10;0.10;;;12.70;99.90;;;;;;5046793;28;20189;-81
2023/08/29 00:28:26;;;;;;;0.10;0.10;;;12.70;99.90;;;;;;5048123;28;20178;-81
2023/08/29 00:30:53;;;;;;;0.10;0.10;;;12.80;99.90;;;;;;5049214;28;20202;-81
2023/08/29 00:33:18;;;;;;;0.10;0.10;;;12.70;99.90;;;;;;5051885;28;20229;-81
2023/08/29 00:35:46;;;;;;;0.10;0.10;;;12.70;99.90;;;;;;5055205;28;21058;-81
2023/08/29 00:38:12;;;;;;;0.10;0.10;;;12.70;99.90;;;;;;5061908;28;20191;-81
2023/08/29 00:40:37;;;;;;;0.10;0.10;;;12.70;99.90;;;;;;5052033;28;20464;-82
2023/08/29 00:43:03;;;;;;;0.10;0.10;;;12.60;99.90;;;;;;5048685;28;20190;-81
2023/08/29 00:45:31;;;;;;;0.10;0.10;;;12.60;99.90;;;;;;5048299;28;20529;-81
2023/08/29 00:47:58;;;;;;;0.10;0.10;;;12.60;99.90;;;;;;5048242;28;20544;-81
2023/08/29 00:50:25;;;;;;;0.20;0.20;;;12.60;99.90;;;;;;5045596;28;20498;-82
2023/08/29 00:52:57;;;;;;;0.10;0.10;;;12.60;99.90;;;;;;5047455;28;20445;-82
2023/08/29 00:55:23;;;;;;;0.10;0.10;;;12.50;99.90;;;;;;5050156;28;20428;-82
2023/08/29 00:57:55;;;;;;;0.10;0.10;;;12.50;99.90;;;;;;5048627;28;20453;-82
2023/08/29 01:00:23;;;;;;;0.10;0.10;;;12.40;99.90;;;;;;5037951;28;20488;-81
2023/08/29 01:02:48;;;;;;;0.10;0.10;;;12.40;99.90;;;;;;5047135;28;20441;-81
2023/08/29 01:05:14;;;;;;;0.10;0.10;;;12.40;99.90;;;;;;5048646;28;20445;-81
2023/08/29 01:07:39;;;;;;;0.10;0.10;;;12.40;99.90;;;;;;5048377;28;20257;-81
2023/08/29 01:10:06;;;;;;;0.10;0.10;;;12.40;99.90;;;;;;5045906;28;20537;-82
2023/08/29 01:12:46;;;;;;;0.10;0.10;;;12.40;99.90;;;;;;5041349;28;20278;-81
2023/08/29 01:15:19;;;;;;;0.20;0.20;;;12.30;99.90;;;;;;5049196;28;20456;-81
2023/08/29 01:17:48;;;;;;;0.10;0.10;;;12.30;99.90;;;;;;5060700;28;20443;-81
2023/08/29 01:20:16;;;;;;;0.10;0.10;;;12.30;99.90;;;;;;5054974;28;20829;-82
2023/08/29 01:23:19;;;;;;;0.20;0.20;;;12.30;99.90;;;;;;5046923;28;20449;-82
2023/08/29 01:26:11;;;;;;;0.10;0.10;;;12.30;99.90;;;;;;5043786;28;20959;-82
2023/08/29 01:28:38;;;;;;;0.10;0.10;;;12.30;99.90;;;;;;5053213;28;20436;-82
2023/08/29 01:31:04;;;;;;;0.10;0.10;;;12.30;99.90;;;;;;5057420;28;20518;-82
2023/08/29 01:33:30;;;;;;;0.10;0.10;;;12.30;99.90;;;;;;5043046;28;20580;-82
2023/08/29 01:35:56;;;;;;;0.10;0.10;;;12.20;99.90;;;;;;5049639;28;20519;-82
2023/08/29 01:38:22;;;;;;;0.10;0.10;;;12.20;99.90;;;;;;5056678;28;20571;-82
2023/08/29 01:40:47;;;;;;;0.10;0.10;;;12.20;99.90;;;;;;5047557;28;20194;-82
2023/08/29 01:43:13;;;;;;;0.10;0.10;;;12.20;99.90;;;;;;5056200;28;20199;-82
2023/08/29 01:45:38;;;;;;;0.20;0.20;;;12.10;99.90;;;;;;5046696;28;20197;-82
2023/08/29 01:48:04;;;;;;;0.13;0.13;;;12.10;99.90;;;;;;5048286;28;20198;-82
2023/08/29 01:50:32;;;;;;;0.10;0.10;;;12.10;99.90;;;;;;5053001;28;20203;-82
2023/08/29 01:52:59;;;;;;;0.10;0.10;;;12.10;99.90;;;;;;5049170;28;20690;-83
2023/08/29 01:55:25;;;;;;;0.10;0.10;;;12.20;99.90;;;;;;5055372;28;20483;-82
2023/08/29 01:57:51;;;;;;;0.10;0.10;;;12.20;99.90;;;;;;5052840;28;20440;-82
2023/08/29 02:00:18;;;;;;;0.10;0.10;;;12.30;99.90;;;;;;5049515;28;20536;-82
2023/08/29 02:02:43;;;;;;;0.10;0.10;;;12.30;99.90;;;;;;5048633;28;20464;-83
2023/08/29 02:05:09;;;;;;;0.10;0.10;;;12.30;99.90;;;;;;5051465;28;20460;-82
2023/08/29 02:07:35;;;;;;;0.10;0.10;;;12.20;99.90;;;;;;5047993;28;20193;-82
2023/08/29 02:10:01;;;;;;;0.10;0.10;;;12.10;99.90;;;;;;5047432;28;20197;-82
2023/08/29 02:12:26;;;;;;;0.10;0.10;;;12.00;99.90;;;;;;5048295;28;20645;-83
2023/08/29 02:14:52;;;;;;;0.10;0.10;;;11.70;99.90;;;;;;5048906;28;20683;-82
2023/08/29 02:17:17;;;;;;;0.13;0.13;;;11.80;99.90;;;;;;5030615;28;20621;-82
2023/08/29 02:19:43;;;;;;;0.20;0.20;;;11.90;99.90;;;;;;5044532;28;20222;-82
2023/08/29 02:22:08;;;;;;;0.10;0.10;;;11.80;99.90;;;;;;5051375;28;20561;-82
2023/08/29 02:24:34;;;;;;;0.17;0.17;;;11.70;99.90;;;;;;5051571;28;20265;-82
2023/08/29 02:27:00;;;;;;;0.10;0.10;;;11.60;99.90;;;;;;5065794;28;20182;-82
2023/08/29 02:29:25;;;;;;;0.10;0.10;;;11.70;99.90;;;;;;5059647;28;20183;-82
2023/08/29 02:31:51;;;;;;;0.20;0.20;;;11.70;99.90;;;;;;5052948;28;20190;-82
2023/08/29 02:34:16;;;;;;;0.17;0.17;;;11.60;99.90;;;;;;5066018;28;21971;-82
2023/08/29 02:36:41;;;;;;;0.20;0.20;;;11.70;99.90;;;;;;5060924;28;20197;-82
2023/08/29 02:39:07;;;;;;;0.10;0.10;;;11.70;99.90;;;;;;5051574;28;20230;-81
2023/08/29 02:41:33;;;;;;;0.20;0.20;;;11.60;99.90;;;;;;5049320;28;20194;-82
2023/08/29 02:43:58;;;;;;;0.10;0.10;;;11.60;99.90;;;;;;5046918;28;20193;-82
2023/08/29 02:46:24;;;;;;;0.10;0.10;;;11.60;99.90;;;;;;5049925;28;20183;-82
2023/08/29 02:48:49;;;;;;;0.20;0.20;;;11.50;99.90;;;;;;5049684;28;20658;-81
2023/08/29 02:51:15;;;;;;;0.10;0.10;;;11.50;99.90;;;;;;5053640;28;20217;-82
2023/08/29 02:53:40;;;;;;;0.10;0.10;;;11.50;99.90;;;;;;5052605;28;20183;-82
2023/08/29 02:56:06;;;;;;;0.10;0.10;;;11.50;99.90;;;;;;5049758;28;20183;-82
2023/08/29 02:58:31;;;;;;;0.20;0.20;;;11.60;99.90;;;;;;5047701;28;20190;-82
2023/08/29 03:00:57;;;;;;;0.20;0.20;;;11.50;99.90;;;;;;5049649;28;20682;-82
2023/08/29 03:03:23;;;;;;;0.20;0.20;;;11.40;99.90;;;;;;5053471;28;20179;-82
2023/08/29 03:05:59;;;;;;;0.20;0.20;;;11.40;99.90;;;;;;5063121;28;20689;-82
2023/08/29 03:08:25;;;;;;;0.20;0.20;;;11.40;99.90;;;;;;5064291;28;20459;-82
2023/08/29 03:10:52;;;;;;;0.20;0.20;;;11.40;99.90;;;;;;5049755;28;20433;-81
2023/08/29 03:13:18;;;;;;;0.10;0.10;;;11.40;99.90;;;;;;5052871;28;20453;-82
2023/08/29 03:15:47;;;;;;;0.10;0.10;;;11.30;99.90;;;;;;5048097;28;20447;-82
2023/08/29 03:18:13;;;;;;;0.20;0.20;;;11.40;99.90;;;;;;5061472;28;20198;-82
2023/08/29 03:20:42;;;;;;;0.20;0.20;;;11.40;99.90;;;;;;5059215;28;20488;-82
2023/08/29 03:23:08;;;;;;;0.20;0.20;;;11.40;99.90;;;;;;5050732;28;20265;-83
2023/08/29 03:25:34;;;;;;;0.10;0.10;;;11.40;99.90;;;;;;5051764;28;20537;-83
2023/08/29 03:28:00;;;;;;;0.20;0.20;;;11.40;99.90;;;;;;5051745;28;20183;-83
2023/08/29 03:30:26;;;;;;;0.10;0.10;;;11.40;99.90;;;;;;5048774;28;20449;-83
2023/08/29 03:32:52;;;;;;;0.20;0.20;;;11.40;99.90;;;;;;5049364;28;20587;-83
2023/08/29 03:35:18;;;;;;;0.20;0.20;;;11.40;99.90;;;;;;5054233;28;20460;-84
2023/08/29 03:37:44;;;;;;;0.10;0.10;;;11.40;99.90;;;;;;5060119;28;20210;-82
2023/08/29 03:40:11;;;;;;;0.20;0.20;;;11.30;99.90;;;;;;5050278;28;20557;-83
2023/08/29 03:42:36;;;;;;;0.20;0.20;;;11.30;99.90;;;;;;5050319;28;20457;-83
2023/08/29 03:45:03;;;;;;;0.20;0.20;;;11.20;99.90;;;;;;5049222;28;20540;-83
2023/08/29 03:47:28;;;;;;;0.20;0.20;;;11.20;99.90;;;;;;5049059;28;20198;-83
2023/08/29 03:49:54;;;;;;;0.10;0.10;;;11.20;99.90;;;;;;5050902;28;20817;-82
2023/08/29 03:52:24;;;;;;;0.20;0.20;;;11.20;99.90;;;;;;5058076;28;20650;-83
2023/08/29 03:54:51;;;;;;;0.10;0.10;;;11.10;99.90;;;;;;5047211;28;20191;-82
2023/08/29 03:57:17;;;;;;;0.20;0.20;;;11.00;99.90;;;;;;5048881;28;20432;-83
2023/08/29 03:59:42;;;;;;;0.20;0.20;;;11.00;99.90;;;;;;5051715;28;21250;-82
2023/08/29 04:02:08;;;;;;;0.20;0.20;;;11.10;99.90;;;;;;5047357;28;20214;-83
2023/08/29 04:04:35;;;;;;;0.20;0.20;;;11.10;99.90;;;;;;5049657;28;20221;-83
2023/08/29 04:07:01;;;;;;;0.20;0.20;;;11.00;99.90;;;;;;5051264;28;20603;-83
2023/08/29 04:09:27;;;;;;;0.13;0.13;;;11.00;99.90;;;;;;5051302;28;21008;-83
2023/08/29 04:11:52;;;;;;;0.20;0.20;;;10.90;99.90;;;;;;5051434;28;20537;-83
2023/08/29 04:14:18;;;;;;;0.20;0.20;;;11.00;99.90;;;;;;5048999;28;20222;-83
2023/08/29 04:16:44;;;;;;;0.20;0.20;;;10.90;99.90;;;;;;5049853;28;20198;-83
2023/08/29 04:19:11;;;;;;;0.20;0.20;;;10.90;99.90;;;;;;5050323;28;20696;-83
2023/08/29 04:21:36;;;;;;;0.10;0.10;;;10.90;99.90;;;;;;5065846;28;20815;-83
2023/08/29 04:24:02;;;;;;;0.20;0.20;;;11.00;99.90;;;;;;5050988;28;20441;-82
2023/08/29 04:26:28;;;;;;;0.20;0.20;;;11.00;99.90;;;;;;5049151;28;20197;-83
2023/08/29 04:28:53;;;;;;;0.20;0.20;;;11.00;99.90;;;;;;5049760;28;20437;-83
2023/08/29 04:31:20;;;;;;;0.20;0.20;;;11.00;99.90;;;;;;5047613;28;20199;-82
2023/08/29 04:33:46;;;;;;;0.20;0.20;;;11.00;99.90;;;;;;5048693;28;20222;-83
2023/08/29 04:36:16;;;;;;;0.20;0.20;;;11.00;99.90;;;;;;5052775;28;20824;-83
2023/08/29 04:38:42;;;;;;;0.20;0.20;;;11.00;99.90;;;;;;5055836;28;20298;-83
2023/08/29 04:41:08;;;;;;;0.20;0.20;;;11.00;99.90;;;;;;5051369;28;21223;-83
2023/08/29 04:43:34;;;;;;;0.20;0.20;;;11.00;99.90;;;;;;5049684;28;20525;-81
2023/08/29 04:45:59;;;;;;;0.20;0.20;;;10.90;99.90;;;;;;5047413;28;20225;-83
2023/08/29 04:48:24;;;;;;;0.20;0.20;;;11.00;99.90;;;;;;5053325;28;20182;-83
2023/08/29 04:50:50;;;;;;;0.20;0.20;;;11.00;99.90;;;;;;5056616;28;20186;-82
2023/08/29 04:53:16;;;;;;;0.20;0.20;;;11.00;99.90;;;;;;5042165;28;20183;-82
2023/08/29 04:55:41;;;;;;;0.20;0.20;;;11.10;99.90;;;;;;5043877;28;20681;-83
2023/08/29 04:58:07;;;;;;;0.20;0.20;;;11.10;99.90;;;;;;5042892;28;20191;-82
2023/08/29 05:00:32;;;;;;;0.20;0.20;;;11.20;99.90;;;;;;5044819;28;20229;-83
2023/08/29 05:02:58;;;;;;;0.20;0.20;;;11.20;99.90;;;;;;5048077;28;20220;-83
2023/08/29 05:05:24;;;;;;;0.20;0.20;;;11.20;99.90;;;;;;5050706;28;20198;-81
2023/08/29 05:07:49;;;;;;;0.20;0.20;;;11.20;99.90;;;;;;5049714;28;20185;-83
2023/08/29 05:10:15;;;;;;;0.10;0.10;;;11.30;99.90;;;;;;5044916;28;20183;-82
2023/08/29 05:12:41;;;;;;;0.20;0.20;;;11.30;99.90;;;;;;5047537;28;20262;-83
2023/08/29 05:15:08;;;;;;;0.20;0.20;;;11.30;99.90;;;;;;5062061;28;20577;-82
2023/08/29 05:17:33;;;;;;;0.20;0.20;;;11.40;99.90;;;;;;5052794;28;20983;-83
2023/08/29 05:19:59;;;;;;;0.20;0.20;;;11.40;99.90;;;;;;5044927;28;20489;-83
2023/08/29 05:22:24;;;;;;;0.20;0.20;;;11.40;99.90;;;;;;5050487;28;20208;-83
2023/08/29 05:24:50;;;;;;;0.10;0.10;;;11.50;99.90;;;;;;5047407;28;20191;-82
2023/08/29 05:27:15;;;;;;;0.20;0.20;;;11.50;99.90;;;;;;5052223;28;20194;-82
2023/08/29 05:29:41;;;;;;;0.20;0.20;;;11.40;99.90;;;;;;5047491;28;20194;-83
2023/08/29 05:32:07;;;;;;;0.13;0.13;;;11.50;99.90;;;;;;5042339;28;20232;-83
2023/08/29 05:34:32;;;;;;;0.10;0.10;;;11.60;99.90;;;;;;5045551;28;20237;-83
2023/08/29 05:36:58;;;;;;;0.20;0.20;;;11.70;99.90;;;;;;5046641;28;20451;-84
2023/08/29 05:39:23;;;;;;;0.13;0.13;;;11.80;99.90;;;;;;5042093;28;20575;-83
2023/08/29 05:41:52;;;;;;;0.10;0.10;;;11.80;99.90;;;;;;5047552;28;20205;-83
2023/08/29 05:44:17;;;;;;;0.13;0.13;;;11.80;99.90;;;;;;5046717;28;20650;-83
2023/08/29 05:46:43;;;;;;;0.10;0.10;;;11.90;99.90;;;;;;5045479;28;20425;-82
2023/08/29 05:49:09;;;;;;;0.10;0.10;;;11.90;99.90;;;;;;5054036;28;20186;-83
2023/08/29 05:51:34;;;;;;;0.20;0.20;;;12.00;99.90;;;;;;5047302;28;20202;-83
2023/08/29 05:54:00;;;;;;;0.10;0.10;;;12.10;99.90;;;;;;5044601;28;20191;-82
2023/08/29 05:56:26;;;;;;;0.10;0.10;;;12.10;99.90;;;;;;5048066;28;20197;-83
2023/08/29 05:58:51;;;;;;;0.20;0.20;;;12.20;99.90;;;;;;5048043;28;20253;-83
2023/08/29 06:01:17;;;;;;;0.10;0.10;;;12.20;99.90;;;;;;5045453;28;20695;-82
2023/08/29 06:03:43;;;;;;;0.10;0.10;;;12.20;99.90;;;;;;5048824;28;20182;-84
2023/08/29 06:06:09;;;;;;;0.10;0.10;;;12.30;99.90;;;;;;5060521;28;20312;-83
2023/08/29 06:08:35;;;;;;;0.10;0.10;;;12.40;99.90;;;;;;5049682;28;20455;-84
2023/08/29 06:11:01;;;;;;;0.10;0.10;;;12.40;99.90;;;;;;5038774;28;20460;-83
2023/08/29 06:13:27;;;;;;;0.20;0.20;;;12.50;99.90;;;;;;5047071;28;20193;-83
2023/08/29 06:15:53;;;;;;;0.10;0.10;;;12.60;99.90;;;;;;5044970;28;20479;-83
2023/08/29 06:18:19;;;;;;;0.10;0.10;;;12.60;99.90;;;;;;5049753;28;20638;-83
2023/08/29 06:20:44;;;;;;;0.10;0.10;;;12.70;99.90;;;;;;5041538;28;21004;-83
2023/08/29 06:23:10;;;;;;;0.10;0.10;;;12.70;99.90;;;;;;5042666;28;20240;-83
2023/08/29 06:25:37;;;;;;;0.10;0.10;;;12.80;99.90;;;;;;5045174;28;20186;-83
2023/08/29 06:28:03;;;;;;;0.10;0.10;;;12.90;99.90;;;;;;5043392;28;20205;-84
2023/08/29 06:30:28;;;;;;;0.10;0.10;;;13.00;99.90;;;;;;5041094;28;20449;-84
2023/08/29 06:32:54;;;;;;;0.10;0.10;;;13.00;99.90;;;;;;5044607;28;20249;-84
2023/08/29 06:35:20;;;;;;;0.10;0.10;;;13.10;99.90;;;;;;5045584;28;20204;-83
2023/08/29 06:37:46;;;;;;;0.10;0.10;;;13.20;99.90;;;;;;5048849;28;20183;-83
2023/08/29 06:40:11;;;;;;;0.10;0.10;;;13.20;99.90;;;;;;5042914;28;20233;-83
2023/08/29 06:42:40;;;;;;;0.10;0.10;;;13.30;99.90;;;;;;5042599;28;20198;-84
2023/08/29 06:45:06;;;;;;;0.10;0.10;;;13.30;99.90;;;;;;5038378;28;20190;-83
2023/08/29 06:47:32;;;;;;;0.10;0.10;;;13.40;99.90;;;;;;5038277;28;20591;-85
2023/08/29 06:49:58;;;;;;;0.10;0.10;;;13.50;99.90;;;;;;5043884;28;20457;-85
2023/08/29 06:52:23;;;;;;;0.10;0.10;;;13.70;99.90;;;;;;5049582;28;20959;-84
2023/08/29 06:54:50;;;;;;;0.10;0.10;;;13.60;99.90;;;;;;5048405;28;20199;-85
2023/08/29 06:57:16;;;;;;;0.10;0.10;;;13.70;99.90;;;;;;5045813;28;20187;-85
2023/08/29 06:59:41;;;;;;;0.10;0.10;;;13.70;99.90;;;;;;5049105;28;20984;-85
2023/08/29 07:02:07;;;;;;;0.10;0.10;;;13.70;99.90;;;;;;5041040;28;20198;-86
2023/08/29 07:04:32;;;;;;;0.10;0.10;;;13.70;99.90;;;;;;5047201;28;20195;-87
2023/08/29 07:06:58;;;;;;;0.10;0.10;;;13.80;99.90;;;;;;5049887;28;20198;-87
2023/08/29 07:09:27;;;;;;;0.10;0.10;;;13.90;99.90;;;;;;5049435;28;20260;-88
2023/08/29 07:11:53;;;;;;;0.10;0.10;;;14.00;99.90;;;;;;5035529;28;20175;-87
2023/08/29 07:14:18;;;;;;;0.10;0.10;;;14.10;99.90;;;;;;5058592;28;20465;-87
2023/08/29 07:16:44;;;;;;;0.10;0.10;;;14.20;99.90;;;;;;5043930;28;20437;-87
2023/08/29 07:19:11;;;;;;;0.10;0.10;;;14.30;99.90;;;;;;5049018;28;20230;-87
2023/08/29 07:21:37;;;;;;;0.10;0.10;;;14.40;99.90;;;;;;5049431;28;20186;-87
2023/08/29 07:24:03;;;;;;;0.10;0.10;;;14.40;99.90;;;;;;5045940;28;20441;-87
2023/08/29 07:26:29;;;;;;;0.10;0.10;;;14.50;99.90;;;;;;5051807;28;20193;-86
2023/08/29 07:28:54;;;;;;;0.10;0.10;;;14.60;99.90;;;;;;5049605;28;20437;-87
2023/08/29 07:31:20;;;;;;;0.10;0.10;;;14.60;99.90;;;;;;5049731;28;20190;-88
2023/08/29 07:33:45;;;;;;;0.10;0.10;;;14.70;99.90;;;;;;5050491;28;20719;-86
2023/08/29 07:36:11;;;;;;;0.10;0.10;;;14.80;99.90;;;;;;5051245;28;20186;-86
2023/08/29 07:38:36;;;;;;;0.10;0.10;;;14.90;99.90;;;;;;5050784;28;20195;-84
2023/08/29 07:41:02;;;;;;;0.10;0.10;;;15.00;99.90;;;;;;5050544;28;20199;-84
2023/08/29 07:43:28;;;;;;;0.10;0.10;;;15.20;99.90;;;;;;5052098;28;20191;-84
2023/08/29 07:45:53;;;;;;;0.10;0.10;;;15.00;99.90;;;;;;5048564;28;20953;-84
2023/08/29 07:48:20;;;;;;;0.10;0.10;;;15.10;99.90;;;;;;5049986;28;20191;-84
2023/08/29 07:50:45;;;;;;;0.10;0.10;;;15.20;99.90;;;;;;5050641;28;20708;-84
2023/08/29 07:53:11;;;;;;;0.10;0.10;;;15.20;99.90;;;;;;5063151;28;20520;-84
2023/08/29 07:55:36;;;;;;;0.10;0.10;;;15.30;99.90;;;;;;5067372;28;20678;-84
2023/08/29 07:58:03;;;;;;;0.10;0.10;;;15.30;99.90;;;;;;5052420;28;20171;-84
2023/08/29 08:00:29;;;;;;;0.10;0.10;;;15.40;99.90;;;;;;5067695;28;20593;-83
2023/08/29 08:02:54;;;;;;;0.10;0.10;;;15.50;99.90;;;;;;5072142;28;20424;-84
2023/08/29 08:05:20;;;;;;;0.10;0.10;;;15.60;99.90;;;;;;5049822;28;20433;-83
2023/08/29 08:07:46;;;;;;;0.10;0.10;;;15.70;99.90;;;;;;5052605;28;20175;-84
2023/08/29 08:10:14;;;;;;;0.10;0.10;;;15.80;99.90;;;;;;5050847;28;20421;-84
2023/08/29 08:12:40;;;;;;;0.10;0.10;;;15.80;99.90;;;;;;5052023;28;20228;-83
2023/08/29 08:15:08;;;;;;;0.10;0.10;;;15.90;99.90;;;;;;5051258;28;20437;-83
2023/08/29 08:17:34;;;;;;;0.10;0.10;;;16.10;99.90;;;;;;5068352;28;20443;-84
2023/08/29 08:20:00;;;;;;;0.10;0.10;;;16.20;99.90;;;;;;5070654;28;20530;-84
2023/08/29 08:22:25;;;;;;;0.10;0.10;;;16.30;99.90;;;;;;5064123;28;20486;-83
2023/08/29 08:24:51;;;;;;;0.10;0.10;;;16.10;99.90;;;;;;5067536;28;20734;-83
2023/08/29 08:27:18;;;;;;;0.10;0.10;;;16.20;99.90;;;;;;5062638;28;20201;-83
2023/08/29 08:29:44;;;;;;;0.10;0.10;;;16.20;99.90;;;;;;5059422;28;20183;-84
2023/08/29 08:32:10;;;;;;;0.10;0.10;;;16.30;99.90;;;;;;5066132;28;20433;-83
2023/08/29 08:34:35;;;;;;;0.10;0.10;;;16.30;99.90;;;;;;5057530;28;20193;-83
2023/08/29 08:37:01;;;;;;;0.10;0.10;;;16.40;99.90;;;;;;5065095;28;20186;-83
2023/08/29 08:39:26;;;;;;;0.10;0.10;;;16.20;99.90;;;;;;5051632;28;20210;-84
2023/08/29 08:41:53;;;;;;;0.10;0.10;;;16.40;99.90;;;;;;5049473;28;20193;-83
2023/08/29 08:44:21;;;;;;;0.10;0.10;;;16.40;99.90;;;;;;5051305;28;20210;-83
2023/08/29 08:46:47;;;;;;;0.10;0.10;;;16.40;99.90;;;;;;5050308;28;20479;-83
2023/08/29 08:49:13;;;;;;;0.10;0.10;;;16.60;99.90;;;;;;5050926;28;20450;-83
2023/08/29 08:51:40;;;;;;;0.10;0.10;;;16.60;99.90;;;;;;5051341;28;20575;-83
2023/08/29 08:54:09;;;;;;;0.10;0.10;;;16.70;99.90;;;;;;5049330;28;20460;-83
2023/08/29 08:56:37;;;;;;;0.10;0.10;;;16.80;99.90;;;;;;5048033;28;20441;-83
2023/08/29 08:59:03;;;;;;;0.10;0.10;;;16.70;99.90;;;;;;5060872;28;20901;-83
2023/08/29 09:01:29;;;;;;;0.10;0.10;;;16.80;99.90;;;;;;5043862;28;20460;-83
2023/08/29 09:03:55;;;;;;;0.10;0.10;;;16.80;99.90;;;;;;5047348;28;20432;-83
2023/08/29 09:06:20;;;;;;;0.10;0.10;;;16.90;99.90;;;;;;5038623;28;20183;-83
2023/08/29 09:08:46;;;;;;;0.10;0.10;;;16.90;99.90;;;;;;5033307;28;20421;-83
2023/08/29 09:11:11;;;;;;;0.10;0.10;;;16.70;99.90;;;;;;5050672;28;20182;-83
2023/08/29 09:13:47;;;;;;;0.10;0.10;;;16.70;99.90;;;;;;5043004;28;20203;-84
2023/08/29 09:16:14;;;;;;;0.10;0.10;;;16.80;99.90;;;;;;5038244;28;20186;-83
2023/08/29 09:18:43;;;;;;;0.10;0.10;;;16.90;99.90;;;;;;5060235;28;20433;-84
2023/08/29 09:21:22;;;;;;;0.10;0.10;;;17.00;99.90;;;;;;5044815;28;20461;-85
2023/08/29 09:23:47;;;;;;;0.10;0.10;;;16.90;99.90;;;;;;5046598;28;20535;-85
2023/08/29 09:26:13;;;;;;;0.10;0.10;;;17.00;99.90;;;;;;5047975;28;20476;-85
2023/08/29 09:28:40;;;;;;;0.10;0.10;;;17.10;99.90;;;;;;5044556;28;20650;-84
2023/08/29 09:31:07;;;;;;;0.10;0.10;;;17.00;99.90;;;;;;5047645;28;20471;-84
2023/08/29 09:33:33;;;;;;;0.10;0.10;;;17.10;99.90;;;;;;5050694;28;20595;-84
2023/08/29 09:36:04;;;;;;;0.10;0.10;;;17.10;99.90;;;;;;5047820;28;21093;-84
2023/08/29 09:38:34;;;;;;;0.10;0.10;;;17.10;99.90;;;;;;5046998;28;20461;-84
2023/08/29 09:41:00;;;;;;;0.10;0.10;;;17.10;99.90;;;;;;5048218;28;20465;-84
2023/08/29 09:43:28;;;;;;;0.10;0.10;;;17.10;99.90;;;;;;5050284;28;20446;-84
2023/08/29 09:45:54;;;;;;;0.10;0.00;;;17.00;99.90;;;;;;5046957;28;20445;-84
2023/08/29 09:48:20;;;;;;;0.10;0.10;;;17.00;99.90;;;;;;5042651;28;20447;-84
2023/08/29 09:50:48;;;;;;;0.10;0.10;;;17.00;99.90;;;;;;5049550;28;20536;-84
2023/08/29 09:53:18;;;;;;;0.10;0.10;;;17.00;99.90;;;;;;5038612;28;20456;-83
2023/08/29 09:55:46;;;;;;;0.10;0.10;;;17.00;99.90;;;;;;5056766;28;20519;-84
2023/08/29 09:58:15;;;;;;;0.10;0.10;;;17.10;99.90;;;;;;5047521;28;20440;-83
2023/08/29 10:00:41;;;;;;;0.10;0.10;;;17.20;99.90;;;;;;5047780;28;20484;-83
2023/08/29 10:03:08;;;;;;;0.10;0.10;;;17.20;99.90;;;;;;5045741;28;20516;-84
2023/08/29 10:05:37;;;;;;;0.10;0.10;;;17.30;99.90;;;;;;5046156;28;20940;-82
2023/08/29 10:08:15;;;;;;;0.10;0.10;;;17.40;99.90;;;;;;5046748;28;20528;-83
2023/08/29 10:10:42;;;;;;;0.10;0.10;;;17.50;99.90;;;;;;5046232;28;21120;-83
2023/08/29 10:13:12;;;;;;;0.10;0.10;;;17.50;99.90;;;;;;5052132;28;20468;-84
2023/08/29 10:15:41;;;;;;;0.10;0.10;;;17.50;99.90;;;;;;5044264;28;20798;-84
2023/08/29 10:18:07;;;;;;;0.10;0.10;;;17.50;99.90;;;;;;5060955;28;20441;-83
2023/08/29 10:20:34;;;;;;;0.10;0.10;;;17.70;99.90;;;;;;5046307;28;20484;-83
2023/08/29 10:23:02;;;;;;;0.10;0.07;;;17.80;99.90;;;;;;5046651;28;20851;-84
2023/08/29 10:25:28;;;;;;;0.10;0.10;;;17.70;99.90;;;;;;5046779;28;20456;-83
2023/08/29 10:27:55;;;;;;;0.10;0.10;;;17.80;99.90;;;;;;5042509;28;20440;-83
2023/08/29 10:30:24;;;;;;;0.10;0.00;;;18.20;99.90;;;;;;5046065;28;20317;-83
2023/08/29 10:32:50;;;;;;;0.10;0.10;;;18.50;99.90;;;;;;5045387;28;20494;-84
2023/08/29 10:35:20;;;;;;;0.10;0.00;;;18.80;99.90;;;;;;5061938;28;20476;-84
2023/08/29 10:37:51;;;;;;;0.10;0.00;;;19.30;99.90;;;;;;5048306;28;20445;-84
2023/08/29 10:40:17;;;;;;;0.10;0.00;;;19.80;99.90;;;;;;5049885;28;20483;-83
2023/08/29 10:43:19;;;;;;;0.00;0.00;;;20.20;99.90;;;;;;5047461;28;20455;-83
2023/08/29 10:45:54;;;;;;;0.10;0.00;;;20.40;99.90;;;;;;5048500;28;20841;-84
2023/08/29 10:48:21;;;;;;;0.10;0.00;;;20.30;99.90;;;;;;5053569;28;20479;-83
2023/08/29 10:51:08;;;;;;;0.10;0.00;;;20.50;99.90;;;;;;5048937;28;20448;-83
2023/08/29 10:53:38;;;;;;;0.10;0.00;;;20.50;99.90;;;;;;5050388;28;20544;-84
2023/08/29 10:56:07;;;;;;;0.10;0.00;;;21.10;99.90;;;;;;5053698;28;20906;-84
2023/08/29 10:58:42;;;;;;;0.10;0.00;;;21.60;99.90;;;;;;5047790;28;20437;-84
2023/08/29 11:01:23;;;;;;;0.10;0.00;;;22.10;99.90;;;;;;5059394;28;20459;-83
2023/08/29 11:03:50;;;;;;;0.07;0.00;;;22.60;99.90;;;;;;5057434;28;20456;-83
2023/08/29 11:06:23;;;;;;;0.10;0.00;;;22.80;99.90;;;;;;5048641;28;20882;-83
2023/08/29 11:08:49;;;;;;;0.10;0.00;;;22.70;99.90;;;;;;5047917;28;21618;-84
2023/08/29 11:11:22;;;;;;;0.03;0.00;;;22.20;99.90;;;;;;5049202;28;20989;-84
2023/08/29 11:13:59;;;;;;;0.10;0.00;;;21.90;99.90;;;;;;5047993;28;21014;-83
2023/08/29 11:16:26;;;;;;;0.00;0.00;;;21.80;99.90;;;;;;5047823;28;20988;-83
2023/08/29 11:19:03;;;;;;;0.10;0.00;;;21.90;99.90;;;;;;5047163;28;20441;-83
2023/08/29 11:21:30;;;;;;;0.10;0.00;;;21.80;99.90;;;;;;5042540;28;20445;-84
2023/08/29 11:23:58;;;;;;;0.10;0.00;;;22.40;99.90;;;;;;5055109;28;21043;-86
2023/08/29 11:26:27;;;;;;;0.10;0.00;;;22.60;99.90;;;;;;5050278;28;21445;-85
2023/08/29 11:28:53;;;;;;;0.10;0.00;;;22.50;99.90;;;;;;5046753;28;20436;-84
2023/08/29 11:31:18;;;;;;;0.10;0.00;;;22.10;99.90;;;;;;5048046;28;20882;-84
2023/08/29 11:33:48;;;;;;;0.10;0.00;;;22.20;99.90;;;;;;5052392;28;20665;-85
2023/08/29 11:36:15;;;;;;;0.10;0.00;;;21.80;99.90;;;;;;5052709;28;20190;-85
2023/08/29 11:38:42;;;;;;;0.10;0.00;;;22.00;99.90;;;;;;5052310;28;20425;-83
2023/08/29 11:41:08;;;;;;;0.10;0.00;;;22.10;99.90;;;;;;5056068;28;21068;-83
2023/08/29 11:43:34;;;;;;;0.10;0.00;;;22.60;99.90;;;;;;5057052;28;20448;-84
2023/08/29 11:46:01;;;;;;;0.10;0.00;;;22.60;99.90;;;;;;5049934;28;20630;-83
2023/08/29 11:48:30;;;;;;;0.00;0.00;;;22.50;99.90;;;;;;5060052;28;20469;-84
2023/08/29 11:51:01;;;;;;;0.10;0.00;;;22.20;99.90;;;;;;5049940;28;20532;-84
2023/08/29 11:53:34;;;;;;;0.10;0.00;;;21.50;99.90;;;;;;5053166;28;20453;-83
2023/08/29 11:56:02;;;;;;;0.10;0.00;;;21.20;99.90;;;;;;5048133;28;20476;-83
2023/08/29 11:58:36;;;;;;;0.10;0.00;;;21.40;99.90;;;;;;5049634;28;21002;-83
2023/08/29 12:01:07;;;;;;;0.10;0.00;;;21.30;99.90;;;;;;5048884;28;20477;-83
2023/08/29 12:03:38;;;;;;;0.10;0.00;;;21.40;99.90;;;;;;5048984;28;20441;-82
2023/08/29 12:06:10;;;;;;;0.10;0.00;;;21.30;99.90;;;;;;5040294;28;21241;-85
2023/08/29 12:08:41;;;;;;;0.10;0.00;;;21.70;99.90;;;;;;5052248;28;20875;-85
2023/08/29 12:11:13;;;;;;;0.10;0.00;;;22.00;99.90;;;;;;5056596;28;20444;-84
2023/08/29 12:13:41;;;;;;;0.10;0.00;;;23.20;99.90;;;;;;5049861;28;20448;-84
2023/08/29 12:16:16;;;;;;;0.10;0.00;;;23.80;99.90;;;;;;5044968;28;20529;-85
2023/08/29 12:18:42;;;;;;;0.10;0.00;;;24.50;99.90;;;;;;5042703;28;20469;-84
2023/08/29 12:21:15;;;;;;;0.10;0.00;;;24.80;99.90;;;;;;5047870;28;20461;-83
2023/08/29 12:23:43;;;;;;;0.10;0.00;;;25.20;99.90;;;;;;5051627;28;20453;-82
2023/08/29 12:26:09;;;;;;;0.10;0.00;;;25.70;99.90;;;;;;5051951;28;20462;-82
2023/08/29 12:28:35;;;;;;;0.10;0.00;;;25.90;99.90;;;;;;5049230;28;20421;-82
2023/08/29 12:31:01;;;;;;;0.10;0.00;;;25.50;99.90;;;;;;5049254;28;20444;-81
2023/08/29 12:33:27;;;;;;;0.00;0.00;;;25.20;99.90;;;;;;5044653;28;20824;-83
2023/08/29 12:35:53;;;;;;;0.00;0.00;;;24.50;99.90;;;;;;5060419;28;20220;-84
2023/08/29 12:38:20;;;;;;;0.00;0.00;;;24.90;99.90;;;;;;5050437;28;20289;-81
2023/08/29 12:40:45;;;;;;;0.00;0.00;;;25.30;99.90;;;;;;5049887;28;20484;-82
2023/08/29 12:43:12;;;;;;;0.00;0.00;;;25.70;99.90;;;;;;5046516;28;20437;-81
2023/08/29 12:45:38;;;;;;;0.00;0.00;;;25.70;99.90;;;;;;5047411;28;20214;-83
2023/08/29 12:48:05;;;;;;;0.00;0.00;;;25.80;99.90;;;;;;5060721;28;20524;-84